sensor_id;sensor_type;location;lat;lon;timestamp;pressure;altitude;pressure_sealevel;temperature;humidity
63097;BME280;49185;42.320;23.198;2022-12-07T00:01:08;94861.53;;;4.53;83.98
63097;BME280;49185;42.320;23.198;2022-12-07T00:03:36;94859.09;;;5.04;81.96
63097;BME280;49185;42.320;23.198;2022-12-07T00:06:03;94861.88;;;5.16;80.83
63097;BME280;49185;42.320;23.198;2022-12-07T00:08:30;94864.69;;;4.82;81.98
63097;BME280;49185;42.320;23.198;2022-12-07T00:10:59;94860.50;;;4.61;83.53
63097;BME280;49185;42.320;23.198;2022-12-07T00:13:25;94863.84;;;5.27;81.17
63097;BME280;49185;42.320;23.198;2022-12-07T00:15:50;94864.28;;;5.56;79.68
63097;BME280;49185;42.320;23.198;2022-12-07T00:18:16;94867.91;;;5.61;79.99
63097;BME280;49185;42.320;23.198;2022-12-07T00:20:41;94866.63;;;5.39;81.09
63097;BME280;49185;42.320;23.198;2022-12-07T00:23:07;94868.00;;;5.09;82.28
63097;BME280;49185;42.320;23.198;2022-12-07T00:25:32;94864.31;;;4.65;83.68
63097;BME280;49185;42.320;23.198;2022-12-07T00:27:57;94865.88;;;5.31;82.92
63097;BME280;49185;42.320;23.198;2022-12-07T00:30:23;94859.25;;;4.64;84.37
63097;BME280;49185;42.320;23.198;2022-12-07T00:32:49;94854.66;;;4.39;86.17
63097;BME280;49185;42.320;23.198;2022-12-07T00:35:15;94864.03;;;4.22;87.45
63097;BME280;49185;42.320;23.198;2022-12-07T00:37:40;94865.03;;;4.14;88.17
63097;BME280;49185;42.320;23.198;2022-12-07T00:40:06;94860.63;;;4.14;88.84
63097;BME280;49185;42.320;23.198;2022-12-07T00:42:32;94867.47;;;4.09;88.59
63097;BME280;49185;42.320;23.198;2022-12-07T00:44:57;94869.31;;;4.08;88.60
63097;BME280;49185;42.320;23.198;2022-12-07T00:47:22;94856.16;;;4.08;88.85
63097;BME280;49185;42.320;23.198;2022-12-07T00:49:48;94854.31;;;4.09;89.24
63097;BME280;49185;42.320;23.198;2022-12-07T00:52:13;94860.22;;;4.11;88.77
63097;BME280;49185;42.320;23.198;2022-12-07T00:54:39;94850.88;;;4.08;88.82
63097;BME280;49185;42.320;23.198;2022-12-07T00:57:05;94858.53;;;4.43;88.38
63097;BME280;49185;42.320;23.198;2022-12-07T00:59:30;94861.06;;;5.47;82.51
63097;BME280;49185;42.320;23.198;2022-12-07T01:01:56;94857.34;;;5.61;81.77
63097;BME280;49185;42.320;23.198;2022-12-07T01:04:21;94854.41;;;5.44;82.76
63097;BME280;49185;42.320;23.198;2022-12-07T01:06:46;94846.50;;;5.44;82.05
63097;BME280;49185;42.320;23.198;2022-12-07T01:09:12;94851.72;;;5.19;83.37
63097;BME280;49185;42.320;23.198;2022-12-07T01:11:40;94846.16;;;5.34;82.49
63097;BME280;49185;42.320;23.198;2022-12-07T01:14:05;94855.91;;;4.88;84.02
63097;BME280;49185;42.320;23.198;2022-12-07T01:16:32;94857.16;;;4.86;84.71
63097;BME280;49185;42.320;23.198;2022-12-07T01:18:58;94849.88;;;4.74;85.35
63097;BME280;49185;42.320;23.198;2022-12-07T01:21:28;94852.31;;;4.76;85.43
63097;BME280;49185;42.320;23.198;2022-12-07T01:23:53;94850.22;;;4.46;85.74
63097;BME280;49185;42.320;23.198;2022-12-07T01:26:21;94843.34;;;4.32;86.43
63097;BME280;49185;42.320;23.198;2022-12-07T01:28:47;94846.59;;;4.27;86.75
63097;BME280;49185;42.320;23.198;2022-12-07T01:31:19;94839.91;;;4.31;85.97
63097;BME280;49185;42.320;23.198;2022-12-07T01:33:47;94839.69;;;4.46;85.38
63097;BME280;49185;42.320;23.198;2022-12-07T01:38:47;94845.81;;;4.27;86.33
63097;BME280;49185;42.320;23.198;2022-12-07T01:41:13;94846.19;;;4.30;85.68
63097;BME280;49185;42.320;23.198;2022-12-07T01:46:36;94833.25;;;4.15;86.96
63097;BME280;49185;42.320;23.198;2022-12-07T01:49:03;94827.19;;;4.08;86.76
63097;BME280;49185;42.320;23.198;2022-12-07T01:51:31;94819.69;;;4.12;87.45
63097;BME280;49185;42.320;23.198;2022-12-07T01:53:56;94818.63;;;4.40;85.75
63097;BME280;49185;42.320;23.198;2022-12-07T01:56:25;94824.75;;;4.27;86.52
63097;BME280;49185;42.320;23.198;2022-12-07T01:58:53;94819.34;;;4.60;84.92
63097;BME280;49185;42.320;23.198;2022-12-07T02:01:19;94810.56;;;4.21;85.86
63097;BME280;49185;42.320;23.198;2022-12-07T02:03:45;94811.81;;;4.05;86.98
63097;BME280;49185;42.320;23.198;2022-12-07T02:06:16;94803.78;;;4.90;83.08
63097;BME280;49185;42.320;23.198;2022-12-07T02:08:43;94798.22;;;5.12;81.45
63097;BME280;49185;42.320;23.198;2022-12-07T02:11:09;94803.53;;;4.60;83.91
63097;BME280;49185;42.320;23.198;2022-12-07T02:13:37;94804.06;;;4.75;83.79
63097;BME280;49185;42.320;23.198;2022-12-07T02:16:25;94804.19;;;4.94;82.57
63097;BME280;49185;42.320;23.198;2022-12-07T02:19:17;94807.09;;;4.79;83.52
63097;BME280;49185;42.320;23.198;2022-12-07T02:21:53;94805.25;;;4.80;83.25
63097;BME280;49185;42.320;23.198;2022-12-07T02:29:25;94806.31;;;5.17;81.86
63097;BME280;49185;42.320;23.198;2022-12-07T02:32:16;94803.50;;;4.67;83.67
63097;BME280;49185;42.320;23.198;2022-12-07T02:37:28;94800.63;;;4.82;83.28
63097;BME280;49185;42.320;23.198;2022-12-07T02:40:16;94803.91;;;4.70;83.90
63097;BME280;49185;42.320;23.198;2022-12-07T02:42:46;94801.78;;;4.92;82.49
63097;BME280;49185;42.320;23.198;2022-12-07T02:45:17;94796.03;;;5.34;81.31
63097;BME280;49185;42.320;23.198;2022-12-07T02:47:44;94795.84;;;5.29;80.89
63097;BME280;49185;42.320;23.198;2022-12-07T02:50:11;94797.63;;;5.10;81.78
63097;BME280;49185;42.320;23.198;2022-12-07T02:52:36;94794.28;;;4.89;82.31
63097;BME280;49185;42.320;23.198;2022-12-07T02:55:03;94793.34;;;5.41;80.56
63097;BME280;49185;42.320;23.198;2022-12-07T03:00:14;94796.94;;;5.71;80.34
63097;BME280;49185;42.320;23.198;2022-12-07T03:03:00;94794.84;;;5.55;80.90
63097;BME280;49185;42.320;23.198;2022-12-07T03:08:21;94791.75;;;5.65;81.35
63097;BME280;49185;42.320;23.198;2022-12-07T03:11:19;94783.59;;;5.66;81.70
63097;BME280;49185;42.320;23.198;2022-12-07T03:13:53;94785.69;;;5.83;81.15
63097;BME280;49185;42.320;23.198;2022-12-07T03:19:08;94780.56;;;5.63;82.29
63097;BME280;49185;42.320;23.198;2022-12-07T03:21:41;94786.47;;;5.65;82.28
63097;BME280;49185;42.320;23.198;2022-12-07T03:24:11;94786.56;;;5.26;83.65
63097;BME280;49185;42.320;23.198;2022-12-07T03:26:45;94779.41;;;5.59;82.90
63097;BME280;49185;42.320;23.198;2022-12-07T03:29:21;94786.34;;;5.53;82.21
63097;BME280;49185;42.320;23.198;2022-12-07T03:32:13;94794.72;;;5.18;84.02
63097;BME280;49185;42.320;23.198;2022-12-07T03:34:41;94796.09;;;5.53;83.42
63097;BME280;49185;42.320;23.198;2022-12-07T03:37:18;94790.66;;;5.73;81.65
63097;BME280;49185;42.320;23.198;2022-12-07T03:42:22;94787.44;;;4.82;84.66
63097;BME280;49185;42.320;23.198;2022-12-07T03:44:48;94777.09;;;4.80;85.64
63097;BME280;49185;42.320;23.198;2022-12-07T03:47:22;94779.25;;;4.51;86.59
63097;BME280;49185;42.320;23.198;2022-12-07T03:53:04;94774.31;;;4.16;87.62
63097;BME280;49185;42.320;23.198;2022-12-07T03:55:36;94773.94;;;3.99;88.55
63097;BME280;49185;42.320;23.198;2022-12-07T03:58:09;94772.75;;;3.95;88.13
63097;BME280;49185;42.320;23.198;2022-12-07T04:00:36;94774.41;;;3.90;88.60
63097;BME280;49185;42.320;23.198;2022-12-07T04:03:01;94770.78;;;3.77;89.20
63097;BME280;49185;42.320;23.198;2022-12-07T04:05:27;94769.97;;;3.70;88.91
63097;BME280;49185;42.320;23.198;2022-12-07T04:07:53;94775.84;;;3.66;89.50
63097;BME280;49185;42.320;23.198;2022-12-07T04:10:18;94774.22;;;3.58;89.64
63097;BME280;49185;42.320;23.198;2022-12-07T04:12:44;94780.28;;;3.52;89.55
63097;BME280;49185;42.320;23.198;2022-12-07T04:15:09;94782.72;;;3.53;90.03
63097;BME280;49185;42.320;23.198;2022-12-07T04:17:35;94776.47;;;3.48;90.12
63097;BME280;49185;42.320;23.198;2022-12-07T04:20:00;94771.41;;;3.46;90.22
63097;BME280;49185;42.320;23.198;2022-12-07T04:22:26;94771.16;;;3.81;90.07
63097;BME280;49185;42.320;23.198;2022-12-07T04:24:51;94770.94;;;3.89;88.06
63097;BME280;49185;42.320;23.198;2022-12-07T04:27:17;94782.72;;;3.47;89.30
63097;BME280;49185;42.320;23.198;2022-12-07T04:29:42;94781.91;;;3.26;90.81
63097;BME280;49185;42.320;23.198;2022-12-07T04:32:08;94783.53;;;3.14;91.76
63097;BME280;49185;42.320;23.198;2022-12-07T04:34:34;94786.34;;;3.06;91.84
63097;BME280;49185;42.320;23.198;2022-12-07T04:37:00;94778.81;;;2.82;91.59
63097;BME280;49185;42.320;23.198;2022-12-07T04:39:31;94789.13;;;2.84;92.09
63097;BME280;49185;42.320;23.198;2022-12-07T04:41:57;94778.63;;;2.84;92.62
63097;BME280;49185;42.320;23.198;2022-12-07T04:44:24;94780.06;;;3.87;90.67
63097;BME280;49185;42.320;23.198;2022-12-07T04:46:51;94795.44;;;3.76;88.05
63097;BME280;49185;42.320;23.198;2022-12-07T04:49:17;94788.94;;;3.99;86.91
63097;BME280;49185;42.320;23.198;2022-12-07T04:51:43;94788.59;;;3.75;87.13
63097;BME280;49185;42.320;23.198;2022-12-07T04:54:09;94788.00;;;3.40;87.23
63097;BME280;49185;42.320;23.198;2022-12-07T04:56:35;94786.75;;;3.69;85.88
63097;BME280;49185;42.320;23.198;2022-12-07T04:59:01;94786.16;;;3.34;86.97
63097;BME280;49185;42.320;23.198;2022-12-07T05:01:26;94786.75;;;3.76;85.47
63097;BME280;49185;42.320;23.198;2022-12-07T05:03:52;94785.91;;;3.89;84.86
63097;BME280;49185;42.320;23.198;2022-12-07T05:06:17;94800.50;;;3.38;86.98
63097;BME280;49185;42.320;23.198;2022-12-07T05:08:43;94797.88;;;3.18;88.01
63097;BME280;49185;42.320;23.198;2022-12-07T05:11:09;94798.06;;;3.10;88.54
63097;BME280;49185;42.320;23.198;2022-12-07T05:13:35;94790.56;;;3.00;89.66
63097;BME280;49185;42.320;23.198;2022-12-07T05:16:00;94790.38;;;3.15;88.51
63097;BME280;49185;42.320;23.198;2022-12-07T05:18:26;94787.75;;;3.15;88.97
63097;BME280;49185;42.320;23.198;2022-12-07T05:20:51;94783.53;;;3.27;88.57
63097;BME280;49185;42.320;23.198;2022-12-07T05:23:18;94783.94;;;3.57;87.28
63097;BME280;49185;42.320;23.198;2022-12-07T05:25:43;94785.53;;;3.72;86.29
63097;BME280;49185;42.320;23.198;2022-12-07T05:28:09;94773.97;;;3.93;85.29
63097;BME280;49185;42.320;23.198;2022-12-07T05:30:35;94785.53;;;3.45;87.31
63097;BME280;49185;42.320;23.198;2022-12-07T05:33:00;94774.81;;;3.47;87.26
63097;BME280;49185;42.320;23.198;2022-12-07T05:35:26;94784.13;;;3.56;88.16
63097;BME280;49185;42.320;23.198;2022-12-07T05:37:51;94781.72;;;3.54;87.02
63097;BME280;49185;42.320;23.198;2022-12-07T05:40:16;94779.50;;;3.51;87.78
63097;BME280;49185;42.320;23.198;2022-12-07T05:42:42;94781.69;;;3.34;88.12
63097;BME280;49185;42.320;23.198;2022-12-07T05:45:09;94778.88;;;3.36;88.61
63097;BME280;49185;42.320;23.198;2022-12-07T05:47:35;94779.50;;;3.31;88.67
63097;BME280;49185;42.320;23.198;2022-12-07T05:50:00;94782.91;;;3.45;88.47
63097;BME280;49185;42.320;23.198;2022-12-07T05:52:26;94792.19;;;3.88;87.42
63097;BME280;49185;42.320;23.198;2022-12-07T05:54:52;94782.31;;;3.56;86.78
63097;BME280;49185;42.320;23.198;2022-12-07T05:57:18;94779.28;;;3.39;88.24
63097;BME280;49185;42.320;23.198;2022-12-07T05:59:43;94777.47;;;3.33;88.22
63097;BME280;49185;42.320;23.198;2022-12-07T06:02:11;94777.66;;;3.45;88.22
63097;BME280;49185;42.320;23.198;2022-12-07T06:04:42;94785.75;;;3.30;87.57
63097;BME280;49185;42.320;23.198;2022-12-07T06:07:08;94778.66;;;3.31;87.42
63097;BME280;49185;42.320;23.198;2022-12-07T06:09:34;94778.47;;;3.52;86.76
63097;BME280;49185;42.320;23.198;2022-12-07T06:12:00;94777.66;;;3.52;86.20
63097;BME280;49185;42.320;23.198;2022-12-07T06:14:26;94773.81;;;3.61;86.03
63097;BME280;49185;42.320;23.198;2022-12-07T06:16:51;94780.69;;;3.55;86.00
63097;BME280;49185;42.320;23.198;2022-12-07T06:19:17;94779.47;;;3.85;85.08
63097;BME280;49185;42.320;23.198;2022-12-07T06:21:42;94784.94;;;3.70;85.11
63097;BME280;49185;42.320;23.198;2022-12-07T06:24:11;94780.69;;;3.55;85.38
63097;BME280;49185;42.320;23.198;2022-12-07T06:26:36;94779.09;;;3.48;85.73
63097;BME280;49185;42.320;23.198;2022-12-07T06:29:02;94781.25;;;3.91;84.46
63097;BME280;49185;42.320;23.198;2022-12-07T06:31:27;94781.50;;;3.63;84.83
63097;BME280;49185;42.320;23.198;2022-12-07T06:33:58;94779.06;;;3.61;85.13
63097;BME280;49185;42.320;23.198;2022-12-07T06:36:23;94781.09;;;3.66;84.78
63097;BME280;49185;42.320;23.198;2022-12-07T06:38:49;94788.19;;;3.52;85.14
63097;BME280;49185;42.320;23.198;2022-12-07T06:41:14;94784.69;;;4.05;83.51
63097;BME280;49185;42.320;23.198;2022-12-07T06:43:39;94781.47;;;3.89;83.23
63097;BME280;49185;42.320;23.198;2022-12-07T06:46:05;94792.84;;;3.56;84.03
63097;BME280;49185;42.320;23.198;2022-12-07T06:48:30;94786.97;;;3.54;84.76
63097;BME280;49185;42.320;23.198;2022-12-07T06:50:56;94797.09;;;3.71;84.31
63097;BME280;49185;42.320;23.198;2022-12-07T06:53:22;94796.44;;;3.89;83.81
63097;BME280;49185;42.320;23.198;2022-12-07T06:55:47;94798.44;;;4.65;80.96
63097;BME280;49185;42.320;23.198;2022-12-07T06:58:13;94799.06;;;4.99;79.82
63097;BME280;49185;42.320;23.198;2022-12-07T07:00:38;94798.03;;;5.07;79.01
63097;BME280;49185;42.320;23.198;2022-12-07T07:03:04;94794.66;;;4.93;79.53
63097;BME280;49185;42.320;23.198;2022-12-07T07:05:29;94802.28;;;5.08;78.84
63097;BME280;49185;42.320;23.198;2022-12-07T07:07:55;94794.84;;;6.05;75.01
63097;BME280;49185;42.320;23.198;2022-12-07T07:10:20;94801.81;;;5.93;74.73
63097;BME280;49185;42.320;23.198;2022-12-07T07:12:45;94798.59;;;5.91;76.17
63097;BME280;49185;42.320;23.198;2022-12-07T07:15:11;94793.97;;;6.30;73.52
63097;BME280;49185;42.320;23.198;2022-12-07T07:17:36;94797.94;;;6.21;74.21
63097;BME280;49185;42.320;23.198;2022-12-07T07:20:02;94788.78;;;6.23;75.37
63097;BME280;49185;42.320;23.198;2022-12-07T07:22:27;94786.44;;;6.52;74.44
63097;BME280;49185;42.320;23.198;2022-12-07T07:24:52;94793.19;;;6.97;72.33
63097;BME280;49185;42.320;23.198;2022-12-07T07:27:18;94790.44;;;6.73;74.37
63097;BME280;49185;42.320;23.198;2022-12-07T07:29:43;94781.97;;;8.38;69.39
63097;BME280;49185;42.320;23.198;2022-12-07T07:32:09;94790.63;;;10.11;62.72
63097;BME280;49185;42.320;23.198;2022-12-07T07:34:34;94783.63;;;10.61;60.41
63097;BME280;49185;42.320;23.198;2022-12-07T07:37:00;94783.66;;;10.88;60.25
63097;BME280;49185;42.320;23.198;2022-12-07T07:39:25;94777.84;;;11.73;57.82
63097;BME280;49185;42.320;23.198;2022-12-07T07:41:52;94781.94;;;11.86;56.93
63097;BME280;49185;42.320;23.198;2022-12-07T07:44:17;94779.25;;;11.21;57.95
63097;BME280;49185;42.320;23.198;2022-12-07T07:46:42;94781.91;;;11.21;57.98
63097;BME280;49185;42.320;23.198;2022-12-07T07:49:09;94783.34;;;11.07;60.07
63097;BME280;49185;42.320;23.198;2022-12-07T07:51:35;94780.75;;;12.41;55.93
63097;BME280;49185;42.320;23.198;2022-12-07T07:54:00;94775.66;;;13.03;53.28
63097;BME280;49185;42.320;23.198;2022-12-07T07:56:25;94783.34;;;12.79;54.25
63097;BME280;49185;42.320;23.198;2022-12-07T07:58:52;94785.84;;;12.05;54.90
63097;BME280;49185;42.320;23.198;2022-12-07T08:01:17;94787.78;;;11.23;59.03
63097;BME280;49185;42.320;23.198;2022-12-07T08:03:43;94788.66;;;10.40;60.82
63097;BME280;49185;42.320;23.198;2022-12-07T08:06:08;94789.44;;;9.85;63.13
63097;BME280;49185;42.320;23.198;2022-12-07T08:08:33;94781.69;;;9.49;65.11
63097;BME280;49185;42.320;23.198;2022-12-07T08:10:59;94782.41;;;9.28;66.14
63097;BME280;49185;42.320;23.198;2022-12-07T08:13:24;94781.31;;;11.73;58.01
63097;BME280;49185;42.320;23.198;2022-12-07T08:15:50;94782.56;;;12.94;54.00
63097;BME280;49185;42.320;23.198;2022-12-07T08:18:15;94783.88;;;12.81;53.24
63097;BME280;49185;42.320;23.198;2022-12-07T08:20:41;94778.94;;;11.77;56.18
63097;BME280;49185;42.320;23.198;2022-12-07T08:23:08;94789.00;;;10.88;60.42
63097;BME280;49185;42.320;23.198;2022-12-07T08:25:34;94785.72;;;11.03;60.74
63097;BME280;49185;42.320;23.198;2022-12-07T08:28:00;94781.03;;;12.45;55.55
63097;BME280;49185;42.320;23.198;2022-12-07T08:30:27;94776.94;;;11.30;58.80
63097;BME280;49185;42.320;23.198;2022-12-07T08:32:53;94788.75;;;11.17;59.95
63097;BME280;49185;42.320;23.198;2022-12-07T08:35:18;94784.47;;;10.89;60.94
63097;BME280;49185;42.320;23.198;2022-12-07T08:37:43;94776.19;;;10.63;61.71
63097;BME280;49185;42.320;23.198;2022-12-07T08:40:10;94764.16;;;11.32;58.99
63097;BME280;49185;42.320;23.198;2022-12-07T08:42:36;94771.31;;;11.31;58.67
63097;BME280;49185;42.320;23.198;2022-12-07T08:45:01;94767.25;;;12.15;55.35
63097;BME280;49185;42.320;23.198;2022-12-07T08:47:27;94769.00;;;11.67;57.08
63097;BME280;49185;42.320;23.198;2022-12-07T08:49:53;94772.41;;;12.27;54.72
63097;BME280;49185;42.320;23.198;2022-12-07T08:52:19;94775.56;;;11.87;56.57
63097;BME280;49185;42.320;23.198;2022-12-07T08:54:44;94767.91;;;11.95;56.59
63097;BME280;49185;42.320;23.198;2022-12-07T08:57:12;94759.88;;;11.90;56.38
63097;BME280;49185;42.320;23.198;2022-12-07T08:59:37;94765.25;;;11.68;57.68
63097;BME280;49185;42.320;23.198;2022-12-07T09:02:04;94759.47;;;10.90;59.57
63097;BME280;49185;42.320;23.198;2022-12-07T09:04:30;94757.53;;;11.67;57.61
63097;BME280;49185;42.320;23.198;2022-12-07T09:06:56;94755.94;;;11.66;58.06
63097;BME280;49185;42.320;23.198;2022-12-07T09:09:21;94747.78;;;11.77;57.27
63097;BME280;49185;42.320;23.198;2022-12-07T09:11:47;94738.72;;;11.46;58.30
63097;BME280;49185;42.320;23.198;2022-12-07T09:14:12;94741.03;;;11.37;58.67
63097;BME280;49185;42.320;23.198;2022-12-07T09:16:38;94733.06;;;11.75;57.15
63097;BME280;49185;42.320;23.198;2022-12-07T09:19:04;94727.69;;;12.02;56.43
63097;BME280;49185;42.320;23.198;2022-12-07T09:21:29;94733.34;;;12.64;54.01
63097;BME280;49185;42.320;23.198;2022-12-07T09:23:55;94733.44;;;12.26;55.10
63097;BME280;49185;42.320;23.198;2022-12-07T09:26:20;94731.38;;;11.96;57.40
63097;BME280;49185;42.320;23.198;2022-12-07T09:28:46;94720.75;;;12.01;55.40
63097;BME280;49185;42.320;23.198;2022-12-07T09:31:11;94722.06;;;11.99;56.16
63097;BME280;49185;42.320;23.198;2022-12-07T09:33:37;94724.84;;;12.72;54.93
63097;BME280;49185;42.320;23.198;2022-12-07T09:36:03;94714.84;;;13.56;50.89
63097;BME280;49185;42.320;23.198;2022-12-07T09:38:29;94709.94;;;12.91;52.92
63097;BME280;49185;42.320;23.198;2022-12-07T09:40:55;94710.56;;;12.46;53.61
63097;BME280;49185;42.320;23.198;2022-12-07T09:43:25;94712.66;;;13.07;51.87
63097;BME280;49185;42.320;23.198;2022-12-07T09:45:53;94711.53;;;12.82;52.98
63097;BME280;49185;42.320;23.198;2022-12-07T09:48:32;94713.78;;;11.63;55.71
63097;BME280;49185;42.320;23.198;2022-12-07T09:51:00;94706.53;;;11.53;56.79
63097;BME280;49185;42.320;23.198;2022-12-07T09:53:37;94704.59;;;11.81;55.65
63097;BME280;49185;42.320;23.198;2022-12-07T09:56:04;94703.34;;;13.30;51.64
63097;BME280;49185;42.320;23.198;2022-12-07T09:58:31;94692.34;;;13.11;51.56
63097;BME280;49185;42.320;23.198;2022-12-07T10:03:36;94691.34;;;13.48;51.40
63097;BME280;49185;42.320;23.198;2022-12-07T10:06:04;94691.81;;;13.04;52.50
63097;BME280;49185;42.320;23.198;2022-12-07T10:08:29;94693.78;;;12.45;53.83
63097;BME280;49185;42.320;23.198;2022-12-07T10:10:56;94686.22;;;12.27;54.44
63097;BME280;49185;42.320;23.198;2022-12-07T10:13:37;94678.06;;;12.54;53.04
63097;BME280;49185;42.320;23.198;2022-12-07T10:16:04;94675.63;;;12.47;54.56
63097;BME280;49185;42.320;23.198;2022-12-07T10:23:36;94672.84;;;13.88;49.49
63097;BME280;49185;42.320;23.198;2022-12-07T10:26:34;94674.75;;;13.56;51.24
63097;BME280;49185;42.320;23.198;2022-12-07T10:29:21;94681.28;;;12.56;53.24
63097;BME280;49185;42.320;23.198;2022-12-07T10:31:55;94664.28;;;12.09;55.34
63097;BME280;49185;42.320;23.198;2022-12-07T10:34:28;94657.19;;;11.88;55.99
63097;BME280;49185;42.320;23.198;2022-12-07T10:37:11;94657.28;;;11.98;55.14
63097;BME280;49185;42.320;23.198;2022-12-07T10:39:56;94657.84;;;12.73;53.58
63097;BME280;49185;42.320;23.198;2022-12-07T10:42:31;94654.09;;;12.75;53.49
63097;BME280;49185;42.320;23.198;2022-12-07T10:45:14;94646.44;;;13.60;50.63
63097;BME280;49185;42.320;23.198;2022-12-07T10:48:12;94647.22;;;13.76;50.26
63097;BME280;49185;42.320;23.198;2022-12-07T10:53:24;94643.19;;;13.22;51.33
63097;BME280;49185;42.320;23.198;2022-12-07T10:56:01;94640.09;;;12.31;53.50
63097;BME280;49185;42.320;23.198;2022-12-07T10:58:54;94639.41;;;11.99;54.96
63097;BME280;49185;42.320;23.198;2022-12-07T11:01:52;94635.00;;;12.30;54.64
63097;BME280;49185;42.320;23.198;2022-12-07T11:04:51;94631.16;;;12.79;53.20
63097;BME280;49185;42.320;23.198;2022-12-07T11:07:38;94630.63;;;12.87;51.50
63097;BME280;49185;42.320;23.198;2022-12-07T11:10:29;94625.28;;;12.92;52.21
63097;BME280;49185;42.320;23.198;2022-12-07T11:15:49;94617.34;;;12.13;54.48
63097;BME280;49185;42.320;23.198;2022-12-07T11:18:27;94613.03;;;11.97;54.80
63097;BME280;49185;42.320;23.198;2022-12-07T11:23:56;94604.06;;;11.71;55.09
63097;BME280;49185;42.320;23.198;2022-12-07T11:26:45;94593.50;;;13.01;51.53
63097;BME280;49185;42.320;23.198;2022-12-07T11:37:09;94564.41;;;16.17;42.02
63097;BME280;49185;42.320;23.198;2022-12-07T11:39:44;94558.94;;;15.21;44.48
63097;BME280;49185;42.320;23.198;2022-12-07T11:42:21;94565.88;;;13.93;47.35
63097;BME280;49185;42.320;23.198;2022-12-07T11:44:55;94564.63;;;12.36;52.85
63097;BME280;49185;42.320;23.198;2022-12-07T11:47:56;94562.47;;;12.28;53.28
63097;BME280;49185;42.320;23.198;2022-12-07T11:53:39;94547.03;;;13.22;50.30
63097;BME280;49185;42.320;23.198;2022-12-07T11:56:27;94543.81;;;13.30;50.56
63097;BME280;49185;42.320;23.198;2022-12-07T12:02:19;94544.91;;;12.63;53.16
63097;BME280;49185;42.320;23.198;2022-12-07T12:04:54;94542.25;;;14.65;46.51
63097;BME280;49185;42.320;23.198;2022-12-07T12:07:24;94536.88;;;14.65;46.54
63097;BME280;49185;42.320;23.198;2022-12-07T12:09:55;94542.47;;;14.19;47.51
63097;BME280;49185;42.320;23.198;2022-12-07T12:20:57;94539.06;;;13.02;49.26
63097;BME280;49185;42.320;23.198;2022-12-07T12:23:50;94527.03;;;12.73;50.85
63097;BME280;49185;42.320;23.198;2022-12-07T12:26:22;94529.22;;;11.88;53.57
63097;BME280;49185;42.320;23.198;2022-12-07T12:28:56;94517.59;;;11.99;53.70
63097;BME280;49185;42.320;23.198;2022-12-07T12:33:51;94503.13;;;11.85;54.66
63097;BME280;49185;42.320;23.198;2022-12-07T12:36:20;94507.03;;;11.62;56.31
63097;BME280;49185;42.320;23.198;2022-12-07T12:38:50;94507.38;;;11.23;55.27
63097;BME280;49185;42.320;23.198;2022-12-07T12:44:00;94499.84;;;11.67;53.52
63097;BME280;49185;42.320;23.198;2022-12-07T12:49:13;94508.28;;;11.49;54.18
63097;BME280;49185;42.320;23.198;2022-12-07T12:51:41;94502.19;;;11.53;54.69
63097;BME280;49185;42.320;23.198;2022-12-07T12:54:31;94496.94;;;11.74;54.98
63097;BME280;49185;42.320;23.198;2022-12-07T12:59:36;94503.84;;;11.70;55.26
63097;BME280;49185;42.320;23.198;2022-12-07T13:15:44;94491.66;;;11.21;58.02
63097;BME280;49185;42.320;23.198;2022-12-07T13:18:45;94497.56;;;11.33;56.80
63097;BME280;49185;42.320;23.198;2022-12-07T13:28:47;94481.63;;;10.91;57.03
63097;BME280;49185;42.320;23.198;2022-12-07T13:33:46;94491.72;;;11.36;56.06
63097;BME280;49185;42.320;23.198;2022-12-07T13:36:39;94491.34;;;11.81;53.88
63097;BME280;49185;42.320;23.198;2022-12-07T13:39:24;94490.72;;;11.48;55.38
63097;BME280;49185;42.320;23.198;2022-12-07T13:41:53;94499.13;;;10.87;57.57
63097;BME280;49185;42.320;23.198;2022-12-07T13:44:19;94490.81;;;10.78;56.79
63097;BME280;49185;42.320;23.198;2022-12-07T13:49:30;94496.13;;;11.15;55.89
63097;BME280;49185;42.320;23.198;2022-12-07T13:52:27;94489.38;;;11.02;56.99
63097;BME280;49185;42.320;23.198;2022-12-07T13:55:01;94499.44;;;11.38;55.56
63097;BME280;49185;42.320;23.198;2022-12-07T13:57:28;94495.34;;;10.77;57.31
63097;BME280;49185;42.320;23.198;2022-12-07T13:59:54;94491.69;;;10.89;57.37
63097;BME280;49185;42.320;23.198;2022-12-07T14:02:24;94492.56;;;10.99;57.84
63097;BME280;49185;42.320;23.198;2022-12-07T14:04:51;94499.84;;;10.39;60.19
63097;BME280;49185;42.320;23.198;2022-12-07T14:07:28;94502.91;;;10.58;59.38
63097;BME280;49185;42.320;23.198;2022-12-07T14:09:55;94499.59;;;10.73;58.87
63097;BME280;49185;42.320;23.198;2022-12-07T14:12:21;94502.78;;;10.75;59.42
63097;BME280;49185;42.320;23.198;2022-12-07T14:14:48;94501.38;;;10.68;59.17
63097;BME280;49185;42.320;23.198;2022-12-07T14:17:17;94500.50;;;10.57;59.91
63097;BME280;49185;42.320;23.198;2022-12-07T14:19:52;94502.81;;;10.48;59.98
63097;BME280;49185;42.320;23.198;2022-12-07T14:24:45;94511.34;;;10.23;61.25
63097;BME280;49185;42.320;23.198;2022-12-07T14:27:21;94517.09;;;9.87;62.32
63097;BME280;49185;42.320;23.198;2022-12-07T14:29:48;94507.53;;;9.64;62.81
63097;BME280;49185;42.320;23.198;2022-12-07T14:32:20;94507.41;;;9.76;62.58
63097;BME280;49185;42.320;23.198;2022-12-07T14:34:57;94503.47;;;9.57;63.33
63097;BME280;49185;42.320;23.198;2022-12-07T14:37:24;94502.28;;;9.69;63.02
63097;BME280;49185;42.320;23.198;2022-12-07T14:39:49;94499.50;;;9.59;63.21
63097;BME280;49185;42.320;23.198;2022-12-07T14:42:15;94506.50;;;9.65;63.07
63097;BME280;49185;42.320;23.198;2022-12-07T14:44:41;94511.50;;;9.40;64.14
63097;BME280;49185;42.320;23.198;2022-12-07T14:47:10;94511.38;;;8.57;67.30
63097;BME280;49185;42.320;23.198;2022-12-07T14:49:37;94510.00;;;8.08;68.94
63097;BME280;49185;42.320;23.198;2022-12-07T14:52:03;94519.56;;;7.80;70.43